createdAt,value
2019-02-23T00:01:49.685Z,8.00
2019-02-23T00:04:21.144Z,8.00
2019-02-23T00:06:51.779Z,7.90
2019-02-23T00:09:22.434Z,8.00
2019-02-23T00:11:52.725Z,8.00
2019-02-23T00:14:23.203Z,8.00
2019-02-23T00:16:53.654Z,8.00
2019-02-23T00:19:25.121Z,7.90
2019-02-23T00:21:55.694Z,7.90
2019-02-23T00:24:27.861Z,7.80
2019-02-23T00:26:58.215Z,7.80
2019-02-23T00:29:29.671Z,7.80
2019-02-23T00:32:01.911Z,7.80
2019-02-23T00:34:32.640Z,7.80
2019-02-23T00:37:03.068Z,7.70
2019-02-23T00:39:33.409Z,7.60
2019-02-23T00:42:03.817Z,7.60
2019-02-23T00:44:34.515Z,7.70
2019-02-23T00:47:05.027Z,7.70
2019-02-23T00:49:36.585Z,7.70
2019-02-23T00:52:07.228Z,7.60
2019-02-23T00:54:37.744Z,7.60
2019-02-23T00:57:08.165Z,7.60
2019-02-23T00:59:39.074Z,7.60
2019-02-23T01:02:12.011Z,7.50
2019-02-23T01:04:42.837Z,7.60
2019-02-23T01:07:13.211Z,7.60
2019-02-23T01:09:44.077Z,7.60
2019-02-23T01:12:14.659Z,7.50
2019-02-23T01:14:45.194Z,7.50
2019-02-23T01:17:15.686Z,7.50
2019-02-23T01:19:48.027Z,7.40
2019-02-23T01:22:18.891Z,7.40
2019-02-23T01:24:49.642Z,7.40
2019-02-23T01:27:20.062Z,7.30
2019-02-23T01:29:50.575Z,7.30
2019-02-23T01:32:21.060Z,7.40
2019-02-23T01:34:51.401Z,7.30
2019-02-23T01:37:21.756Z,7.30
2019-02-23T01:39:52.415Z,7.30
2019-02-23T01:42:22.860Z,7.20
2019-02-23T01:44:53.299Z,7.20
2019-02-23T01:47:23.680Z,7.20
2019-02-23T01:49:58.967Z,7.20
2019-02-23T01:52:26.283Z,7.10
2019-02-23T01:54:56.761Z,7.00
2019-02-23T01:57:27.380Z,7.00
2019-02-23T01:59:57.809Z,7.00
2019-02-23T02:02:28.357Z,7.00
2019-02-23T02:04:58.688Z,7.00
2019-02-23T02:07:29.127Z,7.00
2019-02-23T02:09:59.934Z,7.00
2019-02-23T02:12:30.869Z,7.00
2019-02-23T02:15:01.271Z,7.00
2019-02-23T02:17:32.209Z,7.00
2019-02-23T02:20:10.952Z,7.00
2019-02-23T02:22:36.367Z,6.90
2019-02-23T02:25:08.180Z,6.90
2019-02-23T02:27:38.714Z,6.90
2019-02-23T02:30:10.632Z,6.90
2019-02-23T02:32:41.287Z,6.80
2019-02-23T02:35:11.904Z,6.90
2019-02-23T02:37:42.491Z,6.80
2019-02-23T02:40:12.965Z,6.90
2019-02-23T02:42:43.406Z,6.80
2019-02-23T02:45:13.956Z,6.80
2019-02-23T02:47:44.368Z,6.80
2019-02-23T02:50:23.794Z,6.80
2019-02-23T02:52:46.877Z,6.80
2019-02-23T02:55:17.325Z,6.80
2019-02-23T02:57:48.560Z,6.70
2019-02-23T03:00:19.016Z,6.80
2019-02-23T03:02:49.484Z,6.70
2019-02-23T03:05:19.922Z,6.70
2019-02-23T03:07:50.424Z,6.70
2019-02-23T03:10:22.133Z,6.70
2019-02-23T03:12:52.486Z,6.70
2019-02-23T03:15:22.912Z,6.70
2019-02-23T03:17:53.303Z,6.60
2019-02-23T03:20:35.922Z,6.60
2019-02-23T03:22:55.980Z,6.60
2019-02-23T03:25:26.355Z,6.60
2019-02-23T03:27:56.687Z,6.60
2019-02-23T03:30:27.174Z,6.60
2019-02-23T03:32:57.612Z,6.60
2019-02-23T03:35:28.308Z,6.50
2019-02-23T03:37:58.666Z,6.40
2019-02-23T03:40:29.856Z,6.40
2019-02-23T03:43:00.302Z,6.40
2019-02-23T03:45:30.827Z,6.40
2019-02-23T03:48:02.836Z,6.40
2019-02-23T03:50:33.777Z,6.40
2019-02-23T03:53:04.141Z,6.30
2019-02-23T03:55:34.735Z,6.30
2019-02-23T03:58:05.187Z,6.30
2019-02-23T04:00:35.669Z,6.20
2019-02-23T04:03:06.089Z,6.20
2019-02-23T04:05:36.450Z,6.20
2019-02-23T04:08:06.932Z,6.20
2019-02-23T04:10:37.617Z,6.20
2019-02-23T04:13:08.004Z,6.20
2019-02-23T04:15:38.629Z,6.20
2019-02-23T04:18:09.762Z,6.20
2019-02-23T04:20:40.754Z,6.20
2019-02-23T04:23:12.015Z,6.20
2019-02-23T04:25:42.491Z,6.10
2019-02-23T04:28:12.968Z,6.00
2019-02-23T04:30:43.722Z,6.10
2019-02-23T04:33:14.111Z,6.00
2019-02-23T04:35:46.595Z,6.00
2019-02-23T04:38:17.054Z,6.00
2019-02-23T04:40:47.497Z,5.90
2019-02-23T04:43:17.946Z,6.00
2019-02-23T04:45:48.365Z,6.00
2019-02-23T04:48:19.029Z,6.00
2019-02-23T04:50:49.376Z,6.00
2019-02-23T04:53:19.811Z,5.90
2019-02-23T04:55:50.359Z,5.90
2019-02-23T04:58:20.716Z,5.90
2019-02-23T05:00:52.765Z,5.90
2019-02-23T05:03:23.170Z,5.90
2019-02-23T05:05:53.594Z,5.80
2019-02-23T05:08:24.028Z,5.80
2019-02-23T05:10:54.484Z,5.80
2019-02-23T05:13:25.951Z,5.70
2019-02-23T05:15:56.508Z,5.70
2019-02-23T05:18:27.388Z,5.60
2019-02-23T05:20:57.798Z,5.50
2019-02-23T05:23:28.268Z,5.50
2019-02-23T05:25:59.235Z,5.50
2019-02-23T05:28:29.549Z,5.50
2019-02-23T05:30:59.924Z,5.50
2019-02-23T05:33:30.335Z,5.40
2019-02-23T05:36:00.787Z,5.40
2019-02-23T05:38:31.415Z,5.40
2019-02-23T05:41:03.952Z,5.40
2019-02-23T05:43:34.381Z,5.40
2019-02-23T05:46:04.817Z,5.40
2019-02-23T05:48:35.243Z,5.40
2019-02-23T05:51:07.350Z,5.40
2019-02-23T05:53:37.675Z,5.30
2019-02-23T05:56:08.035Z,5.30
2019-02-23T05:58:38.476Z,5.30
2019-02-23T06:01:08.953Z,5.30
2019-02-23T06:03:39.357Z,5.20
2019-02-23T06:06:09.844Z,5.30
2019-02-23T06:08:42.731Z,5.20
2019-02-23T06:11:13.165Z,5.20
2019-02-23T06:13:43.605Z,5.20
2019-02-23T06:16:14.076Z,5.20
2019-02-23T06:18:48.030Z,5.20
2019-02-23T06:21:18.460Z,5.10
2019-02-23T06:23:48.844Z,5.10
2019-02-23T06:26:19.301Z,5.10
2019-02-23T06:28:49.651Z,5.10
2019-02-23T06:31:20.131Z,5.00
2019-02-23T06:33:50.533Z,5.00
2019-02-23T06:36:21.001Z,5.00
2019-02-23T06:38:51.653Z,5.00
2019-02-23T06:41:22.325Z,5.00
2019-02-23T06:43:53.443Z,5.00
2019-02-23T06:46:24.379Z,5.00
2019-02-23T06:48:55.204Z,5.00
2019-02-23T06:51:25.623Z,5.00
2019-02-23T06:53:56.039Z,5.00
2019-02-23T06:56:26.500Z,5.00
2019-02-23T06:58:56.945Z,5.10
2019-02-23T07:01:27.532Z,5.10
2019-02-23T07:03:57.921Z,5.10
2019-02-23T07:06:28.288Z,5.10
2019-02-23T07:08:59.016Z,5.10
2019-02-23T07:11:29.489Z,5.10
2019-02-23T07:13:59.950Z,5.20
2019-02-23T07:16:30.279Z,5.20
2019-02-23T07:19:01.196Z,5.30
2019-02-23T07:21:31.611Z,5.30
2019-02-23T07:24:02.091Z,5.40
2019-02-23T07:26:33.296Z,5.40
2019-02-23T07:29:04.163Z,5.50
2019-02-23T07:31:35.505Z,5.60
2019-02-23T07:34:05.852Z,5.70
2019-02-23T07:36:36.298Z,5.80
2019-02-23T07:39:07.106Z,5.90
2019-02-23T07:41:37.596Z,6.00
2019-02-23T07:44:07.945Z,6.10
2019-02-23T07:46:39.011Z,6.30
2019-02-23T07:49:09.440Z,6.40
2019-02-23T07:51:39.900Z,6.50
2019-02-23T07:54:10.335Z,6.60
2019-02-23T07:56:41.835Z,6.60
2019-02-23T07:59:12.318Z,6.70
2019-02-23T08:01:42.699Z,6.90
2019-02-23T08:04:13.451Z,7.10
2019-02-23T08:06:44.046Z,7.20
2019-02-23T08:09:15.322Z,7.50
2019-02-23T08:11:45.923Z,7.60
2019-02-23T08:14:16.363Z,7.60
2019-02-23T08:16:46.988Z,7.90
2019-02-23T08:19:18.919Z,8.00
2019-02-23T08:21:49.819Z,8.00
2019-02-23T08:24:20.387Z,7.90
2019-02-23T08:26:50.731Z,8.00
2019-02-23T08:29:21.082Z,8.00
2019-02-23T08:31:51.531Z,8.00
2019-02-23T08:34:21.975Z,8.20
2019-02-23T08:36:53.248Z,8.20
2019-02-23T08:39:23.608Z,8.20
2019-02-23T08:41:53.997Z,8.30
2019-02-23T08:44:24.380Z,8.40
2019-02-23T08:46:55.774Z,8.50
2019-02-23T08:49:26.180Z,8.50
2019-02-23T08:51:56.619Z,8.40
2019-02-23T08:54:28.706Z,8.30
2019-02-23T08:56:59.147Z,8.30
2019-02-23T08:59:29.604Z,8.20
2019-02-23T09:02:00.043Z,8.20
2019-02-23T09:04:30.399Z,8.30
2019-02-23T09:07:00.748Z,8.30
2019-02-23T09:09:31.161Z,8.70
2019-02-23T09:12:01.680Z,8.50
2019-02-23T09:14:32.080Z,8.50
2019-02-23T09:17:02.515Z,8.60
2019-02-23T09:19:32.820Z,8.70
2019-02-23T09:22:03.194Z,8.70
2019-02-23T09:24:33.650Z,8.90
2019-02-23T09:27:04.171Z,9.00
2019-02-23T09:29:34.664Z,8.80
2019-02-23T09:32:05.493Z,9.00
2019-02-23T09:34:35.893Z,8.90
2019-02-23T09:37:06.392Z,9.20
2019-02-23T09:39:38.651Z,9.50
2019-02-23T09:42:09.146Z,9.50
2019-02-23T09:44:39.544Z,9.60
2019-02-23T09:47:09.920Z,9.60
2019-02-23T09:49:40.228Z,9.70
2019-02-23T09:52:10.835Z,9.90
2019-02-23T09:54:41.391Z,10.20
2019-02-23T09:57:12.045Z,10.30
2019-02-23T09:59:42.627Z,10.80
2019-02-23T10:02:14.327Z,10.80
2019-02-23T10:04:44.785Z,11.80
2019-02-23T10:07:16.115Z,12.60
2019-02-23T10:09:47.279Z,13.10
2019-02-23T10:12:17.649Z,14.10
2019-02-23T10:14:47.967Z,13.70
2019-02-23T10:17:18.327Z,15.40
2019-02-23T10:19:48.612Z,15.80
2019-02-23T10:22:19.020Z,16.10
2019-02-23T10:24:49.920Z,16.50
2019-02-23T10:27:20.445Z,15.80
2019-02-23T10:29:50.859Z,16.00
2019-02-23T10:32:21.303Z,16.90
2019-02-23T10:34:52.133Z,17.20
2019-02-23T10:37:22.997Z,16.60
2019-02-23T10:39:53.364Z,17.10
2019-02-23T10:42:23.781Z,18.00
2019-02-23T10:44:54.289Z,17.90
2019-02-23T10:47:24.715Z,17.80
2019-02-23T10:49:55.139Z,18.10
2019-02-23T10:52:25.676Z,17.90
2019-02-23T10:54:56.083Z,19.20
2019-02-23T10:57:26.934Z,19.50
2019-02-23T10:59:57.479Z,19.70
2019-02-23T11:02:27.951Z,20.50
2019-02-23T11:04:58.428Z,18.90
2019-02-23T11:07:28.917Z,18.60
2019-02-23T11:09:59.338Z,19.40
2019-02-23T11:12:32.266Z,19.30
2019-02-23T11:15:04.361Z,19.20
2019-02-23T11:17:34.822Z,19.60
2019-02-23T11:20:06.587Z,19.70
2019-02-23T11:22:39.303Z,19.70
2019-02-23T11:25:09.996Z,20.00
2019-02-23T11:27:40.563Z,21.10
2019-02-23T11:30:12.341Z,21.40
2019-02-23T11:32:45.816Z,21.20
2019-02-23T11:35:17.271Z,20.90
2019-02-23T11:37:48.178Z,21.30
2019-02-23T11:40:18.582Z,22.20
2019-02-23T11:42:49.082Z,22.00
2019-02-23T11:45:19.491Z,23.60
2019-02-23T11:47:49.908Z,23.50
2019-02-23T11:50:20.281Z,23.50
2019-02-23T11:52:50.846Z,22.40
2019-02-23T11:55:21.505Z,22.30
2019-02-23T11:57:52.416Z,22.50
2019-02-23T12:00:24.618Z,23.60
2019-02-23T12:02:55.594Z,23.60
2019-02-23T12:05:27.806Z,23.30
2019-02-23T12:07:58.442Z,24.10
2019-02-23T12:10:29.676Z,23.50
2019-02-23T12:13:00.123Z,24.80
2019-02-23T12:15:30.556Z,24.40
2019-02-23T12:18:00.972Z,23.50
2019-02-23T12:20:31.337Z,24.30
2019-02-23T12:23:02.859Z,23.80
2019-02-23T12:25:33.259Z,24.10
2019-02-23T12:28:04.785Z,23.00
2019-02-23T12:30:35.341Z,24.40
2019-02-23T12:33:05.732Z,24.40
2019-02-23T12:35:36.289Z,25.20
2019-02-23T12:38:06.923Z,24.10
2019-02-23T12:40:38.395Z,24.90
2019-02-23T12:43:09.728Z,25.50
2019-02-23T12:45:41.396Z,25.20
2019-02-23T12:48:13.644Z,26.30
2019-02-23T12:50:44.047Z,26.80
2019-02-23T12:53:14.505Z,26.50
2019-02-23T12:55:45.010Z,26.10
2019-02-23T12:58:15.734Z,26.00
2019-02-23T13:00:46.161Z,25.80
2019-02-23T13:03:17.543Z,24.00
2019-02-23T13:05:48.089Z,24.00
2019-02-23T13:08:20.073Z,24.30
2019-02-23T13:10:54.086Z,24.80
2019-02-23T13:13:37.580Z,25.00
2019-02-23T13:16:25.438Z,24.50
2019-02-23T13:19:24.831Z,24.30
2019-02-23T13:22:06.333Z,24.60
2019-02-23T13:25:20.904Z,26.50
2019-02-23T13:28:15.798Z,26.00
2019-02-23T13:31:17.383Z,24.50
2019-02-23T13:34:13.059Z,25.40
2019-02-23T13:37:21.665Z,24.40
2019-02-23T13:40:03.044Z,23.80
2019-02-23T13:43:01.180Z,23.90
2019-02-23T13:46:14.629Z,24.10
2019-02-23T13:49:00.547Z,22.50
2019-02-23T13:51:58.095Z,23.60
2019-02-23T13:55:01.513Z,23.70
2019-02-23T13:57:48.837Z,24.50
2019-02-23T14:00:43.635Z,23.70
2019-02-23T14:03:49.638Z,22.80
2019-02-23T14:06:59.891Z,21.70
2019-02-23T14:10:00.515Z,20.80
2019-02-23T14:12:57.330Z,19.70
2019-02-23T14:16:16.149Z,19.10
2019-02-23T14:19:28.118Z,17.80
2019-02-23T14:22:42.994Z,17.40
2019-02-23T14:25:56.996Z,16.70
2019-02-23T14:28:57.886Z,16.60
2019-02-23T14:31:54.325Z,16.40
2019-02-23T14:34:45.210Z,16.40
2019-02-23T14:37:22.364Z,16.10
2019-02-23T14:40:25.675Z,16.00
2019-02-23T14:43:33.456Z,15.80
2019-02-23T14:46:34.620Z,15.60
2019-02-23T14:49:51.477Z,15.50
2019-02-23T14:53:08.747Z,15.30
2019-02-23T14:56:09.895Z,15.30
2019-02-23T14:59:15.420Z,15.10
2019-02-23T15:02:14.791Z,14.90
2019-02-23T15:05:05.464Z,14.70
2019-02-23T15:08:10.644Z,14.80
2019-02-23T15:11:36.352Z,14.60
2019-02-23T15:14:48.455Z,14.80
2019-02-23T15:17:48.591Z,15.60
2019-02-23T15:20:56.455Z,16.40
2019-02-23T15:23:34.849Z,16.60
2019-02-23T15:26:52.979Z,15.40
2019-02-23T15:29:33.290Z,14.90
2019-02-23T15:32:35.469Z,14.40
2019-02-23T15:35:59.385Z,14.40
2019-02-23T15:39:17.138Z,14.30
2019-02-23T15:42:35.032Z,14.10
2019-02-23T15:45:32.582Z,13.90
2019-02-23T15:48:47.122Z,13.90
2019-02-23T15:51:18.538Z,13.90
2019-02-23T15:53:48.996Z,13.60
2019-02-23T15:56:19.392Z,13.60
2019-02-23T15:58:49.977Z,13.60
2019-02-23T16:01:20.604Z,13.60
2019-02-23T16:03:51.046Z,13.60
2019-02-23T16:06:21.437Z,13.50
2019-02-23T16:08:51.899Z,13.50
2019-02-23T16:11:23.410Z,13.40
2019-02-23T16:13:54.831Z,13.50
2019-02-23T16:16:25.287Z,13.50
2019-02-23T16:18:55.867Z,13.40
2019-02-23T16:21:26.234Z,13.30
2019-02-23T16:23:57.780Z,13.40
2019-02-23T16:26:28.251Z,13.00
2019-02-23T16:28:58.735Z,12.90
2019-02-23T16:31:30.036Z,12.80
2019-02-23T16:34:00.445Z,12.70
2019-02-23T16:36:30.987Z,12.60
2019-02-23T16:39:01.355Z,12.50
2019-02-23T16:41:33.364Z,12.50
2019-02-23T16:44:03.868Z,12.50
2019-02-23T16:46:35.507Z,12.40
2019-02-23T16:49:05.906Z,12.20
2019-02-23T16:51:37.094Z,12.10
2019-02-23T16:54:07.516Z,12.00
2019-02-23T16:56:37.993Z,11.80
2019-02-23T16:59:08.420Z,12.00
2019-02-23T17:01:39.483Z,11.90
2019-02-23T17:04:10.437Z,11.80
2019-02-23T17:06:40.882Z,11.70
2019-02-23T17:09:11.473Z,11.70
2019-02-23T17:11:41.873Z,11.60
2019-02-23T17:14:12.371Z,11.50
2019-02-23T17:16:43.095Z,11.60
2019-02-23T17:19:13.508Z,11.40
2019-02-23T17:21:43.952Z,11.40
2019-02-23T17:24:14.399Z,11.20
2019-02-23T17:26:44.945Z,11.40
2019-02-23T17:29:16.143Z,11.40
2019-02-23T17:31:46.691Z,11.20
2019-02-23T17:34:17.119Z,11.30
2019-02-23T17:36:47.547Z,11.30
2019-02-23T17:39:18.080Z,11.20
2019-02-23T17:41:48.708Z,11.10
2019-02-23T17:44:19.077Z,11.10
2019-02-23T17:46:49.429Z,11.10
2019-02-23T17:49:19.883Z,11.10
2019-02-23T17:51:50.324Z,11.10
2019-02-23T17:54:20.786Z,11.10
2019-02-23T17:56:51.347Z,10.90
2019-02-23T17:59:21.903Z,11.00
2019-02-23T18:01:52.310Z,11.00
2019-02-23T18:04:22.809Z,11.00
2019-02-23T18:06:53.247Z,11.00
2019-02-23T18:09:25.080Z,11.00
2019-02-23T18:11:55.430Z,10.90
2019-02-23T18:14:25.766Z,10.90
2019-02-23T18:16:56.272Z,10.80
2019-02-23T18:19:26.660Z,10.80
2019-02-23T18:21:57.106Z,10.70
2019-02-23T18:24:27.469Z,10.60
2019-02-23T18:26:57.932Z,10.60
2019-02-23T18:29:28.937Z,10.50
2019-02-23T18:32:00.411Z,10.50
2019-02-23T18:34:31.953Z,10.50
2019-02-23T18:37:03.552Z,10.40
2019-02-23T18:39:33.900Z,10.30
2019-02-23T18:42:04.254Z,10.20
2019-02-23T18:44:34.689Z,10.20
2019-02-23T18:47:05.169Z,10.10
2019-02-23T18:49:35.587Z,10.00
2019-02-23T18:52:05.940Z,10.00
2019-02-23T18:54:36.227Z,9.90
2019-02-23T18:57:06.860Z,9.80
2019-02-23T18:59:37.258Z,9.70
2019-02-23T19:02:08.432Z,9.60
2019-02-23T19:04:38.767Z,9.60
2019-02-23T19:07:09.113Z,9.50
2019-02-23T19:09:39.484Z,9.50
2019-02-23T19:12:09.900Z,9.50
2019-02-23T19:14:40.349Z,9.40
2019-02-23T19:17:10.687Z,9.40
2019-02-23T19:19:41.043Z,9.40
2019-02-23T19:22:11.395Z,9.40
2019-02-23T19:24:42.004Z,9.30
2019-02-23T19:27:13.502Z,9.20
2019-02-23T19:29:48.281Z,9.30
2019-02-23T19:32:20.248Z,9.20
2019-02-23T19:34:52.613Z,9.20
2019-02-23T19:37:24.416Z,9.20
2019-02-23T19:39:59.917Z,9.20
2019-02-23T19:42:34.804Z,9.10
2019-02-23T19:45:07.734Z,9.20
2019-02-23T19:47:41.282Z,9.10
2019-02-23T19:50:21.283Z,9.10
2019-02-23T19:52:51.725Z,9.10
2019-02-23T19:55:24.336Z,9.10
2019-02-23T19:57:55.755Z,9.00
2019-02-23T20:00:33.814Z,9.00
2019-02-23T20:03:06.874Z,9.00
2019-02-23T20:05:39.995Z,9.00
2019-02-23T20:08:11.188Z,8.90
2019-02-23T20:10:44.026Z,8.90
2019-02-23T20:13:15.546Z,8.90
2019-02-23T20:15:48.671Z,8.90
2019-02-23T20:18:25.058Z,8.80
2019-02-23T20:20:59.451Z,8.80
2019-02-23T20:23:30.767Z,8.80
2019-02-23T20:26:11.925Z,8.80
2019-02-23T20:28:42.605Z,8.70
2019-02-23T20:31:15.308Z,8.70
2019-02-23T20:33:48.163Z,8.80
2019-02-23T20:36:21.073Z,8.70
2019-02-23T20:38:55.099Z,8.70
2019-02-23T20:41:26.868Z,8.60
2019-02-23T20:44:05.329Z,8.60
2019-02-23T20:46:43.416Z,8.60
2019-02-23T20:49:23.548Z,8.60
2019-02-23T20:51:55.607Z,8.50
2019-02-23T20:54:28.099Z,8.50
2019-02-23T20:57:05.133Z,8.40
2019-02-23T20:59:34.566Z,8.40
2019-02-23T21:02:11.100Z,8.30
2019-02-23T21:04:43.235Z,8.30
2019-02-23T21:07:21.310Z,8.30
2019-02-23T21:09:55.056Z,8.20
2019-02-23T21:12:25.448Z,8.10
2019-02-23T21:15:02.852Z,8.20
2019-02-23T21:17:42.240Z,8.20
2019-02-23T21:20:14.300Z,8.10
2019-02-23T21:22:49.805Z,8.20
2019-02-23T21:25:22.603Z,8.10
2019-02-23T21:27:53.428Z,8.10
2019-02-23T21:30:25.599Z,8.10
2019-02-23T21:32:59.013Z,8.00
2019-02-23T21:35:32.432Z,8.10
2019-02-23T21:38:05.016Z,8.00
2019-02-23T21:40:35.370Z,8.00
2019-02-23T21:43:08.431Z,7.90
2019-02-23T21:45:42.878Z,7.90
2019-02-23T21:48:15.735Z,7.80
2019-02-23T21:50:48.304Z,7.80
2019-02-23T21:53:19.475Z,7.70
2019-02-23T21:55:54.923Z,7.60
2019-02-23T21:58:30.064Z,7.60
2019-02-23T22:01:03.042Z,7.60
2019-02-23T22:03:37.718Z,7.50
2019-02-23T22:06:29.884Z,7.40
2019-02-23T22:09:04.861Z,7.50
2019-02-23T22:11:36.883Z,7.50
2019-02-23T22:14:07.185Z,7.40
2019-02-23T22:16:41.924Z,7.30
2019-02-23T22:19:15.167Z,7.20
2019-02-23T22:21:47.423Z,7.10
2019-02-23T22:24:17.903Z,7.00
2019-02-23T22:26:48.432Z,7.10
2019-02-23T22:29:20.924Z,7.20
2019-02-23T22:31:51.599Z,7.30
2019-02-23T22:34:25.293Z,7.30
2019-02-23T22:36:59.549Z,7.10
2019-02-23T22:39:31.367Z,7.00
2019-02-23T22:42:03.122Z,6.90
2019-02-23T22:44:36.420Z,6.90
2019-02-23T22:47:10.341Z,6.90
2019-02-23T22:49:43.698Z,7.00
2019-02-23T22:52:14.794Z,7.10
2019-02-23T22:54:47.284Z,7.00
2019-02-23T22:57:20.919Z,6.90
2019-02-23T22:59:53.637Z,6.80
2019-02-23T23:02:27.236Z,6.70
2019-02-23T23:05:03.158Z,6.70
2019-02-23T23:07:35.779Z,6.80
2019-02-23T23:10:09.454Z,6.80
2019-02-23T23:12:39.925Z,6.60
2019-02-23T23:15:10.675Z,6.70
2019-02-23T23:17:43.976Z,6.80
2019-02-23T23:20:15.063Z,6.80
2019-02-23T23:22:48.037Z,6.70
2019-02-23T23:25:20.385Z,6.70
2019-02-23T23:27:51.978Z,6.70
2019-02-23T23:30:24.419Z,6.70
2019-02-23T23:32:56.675Z,6.70
2019-02-23T23:35:27.052Z,6.70
2019-02-23T23:37:57.443Z,6.70
2019-02-23T23:40:28.771Z,6.60
2019-02-23T23:42:59.776Z,6.60
2019-02-23T23:45:30.120Z,6.50
2019-02-23T23:48:00.452Z,6.50
2019-02-23T23:50:30.810Z,6.40
2019-02-23T23:53:01.146Z,6.40
2019-02-23T23:55:31.751Z,6.40
2019-02-23T23:58:02.475Z,6.40
